sensor_id;sensor_type;location;lat;lon;timestamp;pressure;altitude;pressure_sealevel;temperature;humidity
62150;BME280;48134;53.586;10.610;2024-01-27T00:01:39;102052.34;;;3.79;100.00
62150;BME280;48134;53.586;10.610;2024-01-27T00:04:12;102052.16;;;3.81;100.00
62150;BME280;48134;53.586;10.610;2024-01-27T00:06:45;102042.84;;;3.83;100.00
62150;BME280;48134;53.586;10.610;2024-01-27T00:09:18;102043.50;;;3.92;100.00
62150;BME280;48134;53.586;10.610;2024-01-27T00:11:48;102047.66;;;4.01;100.00
62150;BME280;48134;53.586;10.610;2024-01-27T00:14:21;102049.53;;;3.94;100.00
62150;BME280;48134;53.586;10.610;2024-01-27T00:16:54;102053.44;;;3.91;100.00
62150;BME280;48134;53.586;10.610;2024-01-27T00:19:24;102057.56;;;3.87;100.00
62150;BME280;48134;53.586;10.610;2024-01-27T00:21:57;102071.69;;;3.89;100.00
62150;BME280;48134;53.586;10.610;2024-01-27T00:24:30;102056.56;;;3.95;100.00
62150;BME280;48134;53.586;10.610;2024-01-27T00:27:05;102066.09;;;3.98;100.00
62150;BME280;48134;53.586;10.610;2024-01-27T00:29:33;102063.22;;;3.99;100.00
62150;BME280;48134;53.586;10.610;2024-01-27T00:32:05;102067.97;;;3.97;100.00
62150;BME280;48134;53.586;10.610;2024-01-27T00:34:38;102071.47;;;3.98;100.00
62150;BME280;48134;53.586;10.610;2024-01-27T00:37:11;102060.13;;;4.02;100.00
62150;BME280;48134;53.586;10.610;2024-01-27T00:39:44;102060.31;;;4.01;100.00
62150;BME280;48134;53.586;10.610;2024-01-27T00:42:14;102066.94;;;3.98;100.00
62150;BME280;48134;53.586;10.610;2024-01-27T00:44:58;102072.53;;;3.97;100.00
62150;BME280;48134;53.586;10.610;2024-01-27T00:47:31;102073.75;;;3.94;100.00
62150;BME280;48134;53.586;10.610;2024-01-27T00:49:59;102073.75;;;3.94;100.00
62150;BME280;48134;53.586;10.610;2024-01-27T00:52:27;102086.22;;;3.95;100.00
62150;BME280;48134;53.586;10.610;2024-01-27T00:55:00;102090.75;;;3.95;100.00
62150;BME280;48134;53.586;10.610;2024-01-27T00:57:35;102085.56;;;3.93;100.00
62150;BME280;48134;53.586;10.610;2024-01-27T01:00:08;102091.78;;;3.94;100.00
62150;BME280;48134;53.586;10.610;2024-01-27T01:02:42;102088.25;;;3.93;100.00
62150;BME280;48134;53.586;10.610;2024-01-27T01:05:10;102084.97;;;4.04;100.00
62150;BME280;48134;53.586;10.610;2024-01-27T01:07:38;102099.25;;;3.98;100.00
62150;BME280;48134;53.586;10.610;2024-01-27T01:10:06;102090.97;;;4.00;100.00
62150;BME280;48134;53.586;10.610;2024-01-27T01:12:41;102100.50;;;3.96;100.00
62150;BME280;48134;53.586;10.610;2024-01-27T01:15:09;102110.28;;;4.03;100.00
62150;BME280;48134;53.586;10.610;2024-01-27T01:17:37;102115.03;;;4.01;100.00
62150;BME280;48134;53.586;10.610;2024-01-27T01:20:10;102117.72;;;4.01;100.00
62150;BME280;48134;53.586;10.610;2024-01-27T01:22:38;102123.53;;;4.05;100.00
62150;BME280;48134;53.586;10.610;2024-01-27T01:25:11;102122.28;;;4.01;100.00
62150;BME280;48134;53.586;10.610;2024-01-27T01:27:40;102117.31;;;4.04;100.00
62150;BME280;48134;53.586;10.610;2024-01-27T01:30:13;102118.94;;;3.99;100.00
62150;BME280;48134;53.586;10.610;2024-01-27T01:32:46;102122.84;;;3.96;100.00
62150;BME280;48134;53.586;10.610;2024-01-27T01:35:19;102126.38;;;3.90;100.00
62150;BME280;48134;53.586;10.610;2024-01-27T01:37:52;102119.91;;;3.84;100.00
62150;BME280;48134;53.586;10.610;2024-01-27T01:40:20;102128.81;;;3.85;100.00
62150;BME280;48134;53.586;10.610;2024-01-27T01:42:54;102133.13;;;3.79;100.00
62150;BME280;48134;53.586;10.610;2024-01-27T01:45:22;102135.63;;;3.81;100.00
62150;BME280;48134;53.586;10.610;2024-01-27T01:47:55;102147.06;;;3.83;100.00
62150;BME280;48134;53.586;10.610;2024-01-27T01:50:28;102137.75;;;3.85;100.00
62150;BME280;48134;53.586;10.610;2024-01-27T01:53:01;102134.41;;;3.83;100.00
62150;BME280;48134;53.586;10.610;2024-01-27T01:55:34;102141.63;;;3.76;100.00
62150;BME280;48134;53.586;10.610;2024-01-27T01:58:04;102142.44;;;3.77;100.00
62150;BME280;48134;53.586;10.610;2024-01-27T02:00:31;102139.91;;;3.68;100.00
62150;BME280;48134;53.586;10.610;2024-01-27T02:03:02;102153.31;;;3.62;100.00
62150;BME280;48134;53.586;10.610;2024-01-27T02:05:30;102150.44;;;3.63;100.00
62150;BME280;48134;53.586;10.610;2024-01-27T02:08:04;102159.34;;;3.64;100.00
62150;BME280;48134;53.586;10.610;2024-01-27T02:10:37;102171.97;;;3.63;100.00
62150;BME280;48134;53.586;10.610;2024-01-27T02:13:18;102175.94;;;3.67;100.00
62150;BME280;48134;53.586;10.610;2024-01-27T02:15:47;102175.94;;;3.67;100.00
62150;BME280;48134;53.586;10.610;2024-01-27T02:18:20;102173.78;;;3.84;100.00
62150;BME280;48134;53.586;10.610;2024-01-27T02:20:53;102175.22;;;3.80;100.00
62150;BME280;48134;53.586;10.610;2024-01-27T02:23:26;102171.09;;;3.84;100.00
62150;BME280;48134;53.586;10.610;2024-01-27T02:25:56;102174.03;;;3.89;100.00
62150;BME280;48134;53.586;10.610;2024-01-27T02:28:28;102167.19;;;3.87;100.00
62150;BME280;48134;53.586;10.610;2024-01-27T02:31:03;102179.41;;;3.89;100.00
62150;BME280;48134;53.586;10.610;2024-01-27T02:33:36;102183.94;;;3.89;100.00
62150;BME280;48134;53.586;10.610;2024-01-27T02:36:09;102190.72;;;3.78;100.00
62150;BME280;48134;53.586;10.610;2024-01-27T02:38:42;102185.97;;;3.80;100.00
62150;BME280;48134;53.586;10.610;2024-01-27T02:41:12;102182.09;;;3.89;100.00
62150;BME280;48134;53.586;10.610;2024-01-27T02:43:46;102175.06;;;3.88;100.00
62150;BME280;48134;53.586;10.610;2024-01-27T02:46:19;102190.28;;;3.74;100.00
62150;BME280;48134;53.586;10.610;2024-01-27T02:48:47;102187.75;;;3.66;100.00
62150;BME280;48134;53.586;10.610;2024-01-27T02:51:20;102195.19;;;3.64;100.00
62150;BME280;48134;53.586;10.610;2024-01-27T02:53:48;102197.66;;;3.59;100.00
62150;BME280;48134;53.586;10.610;2024-01-27T02:56:17;102194.09;;;3.58;100.00
62150;BME280;48134;53.586;10.610;2024-01-27T02:58:45;102192.69;;;3.63;100.00
62150;BME280;48134;53.586;10.610;2024-01-27T03:01:13;102195.88;;;3.45;100.00
62150;BME280;48134;53.586;10.610;2024-01-27T03:03:46;102189.66;;;3.44;100.00
62150;BME280;48134;53.586;10.610;2024-01-27T03:06:14;102193.16;;;3.45;100.00
62150;BME280;48134;53.586;10.610;2024-01-27T03:08:42;102198.88;;;3.35;100.00
62150;BME280;48134;53.586;10.610;2024-01-27T03:11:15;102202.41;;;3.35;100.00
62150;BME280;48134;53.586;10.610;2024-01-27T03:13:44;102197.00;;;3.29;100.00
62150;BME280;48134;53.586;10.610;2024-01-27T03:16:17;102205.28;;;3.34;100.00
62150;BME280;48134;53.586;10.610;2024-01-27T03:18:46;102201.97;;;3.32;100.00
62150;BME280;48134;53.586;10.610;2024-01-27T03:21:14;102201.72;;;3.27;100.00
62150;BME280;48134;53.586;10.610;2024-01-27T03:23:42;102203.06;;;3.37;100.00
62150;BME280;48134;53.586;10.610;2024-01-27T03:26:10;102203.47;;;3.41;100.00
62150;BME280;48134;53.586;10.610;2024-01-27T03:28:44;102214.63;;;3.38;100.00
62150;BME280;48134;53.586;10.610;2024-01-27T03:31:17;102210.09;;;3.38;100.00
62150;BME280;48134;53.586;10.610;2024-01-27T03:33:50;102210.19;;;3.52;100.00
62150;BME280;48134;53.586;10.610;2024-01-27T03:36:23;102206.94;;;3.56;100.00
62150;BME280;48134;53.586;10.610;2024-01-27T03:38:56;102213.78;;;3.59;100.00
62150;BME280;48134;53.586;10.610;2024-01-27T03:41:25;102225.44;;;3.66;100.00
62150;BME280;48134;53.586;10.610;2024-01-27T03:44:00;102224.22;;;3.69;100.00
62150;BME280;48134;53.586;10.610;2024-01-27T03:46:28;102233.19;;;3.76;100.00
62150;BME280;48134;53.586;10.610;2024-01-27T03:48:56;102231.34;;;3.83;100.00
62150;BME280;48134;53.586;10.610;2024-01-27T03:51:24;102233.09;;;3.91;100.00
62150;BME280;48134;53.586;10.610;2024-01-27T03:53:52;102241.78;;;3.93;100.00
62150;BME280;48134;53.586;10.610;2024-01-27T03:56:20;102227.91;;;3.96;100.00
62150;BME280;48134;53.586;10.610;2024-01-27T03:58:53;102229.59;;;3.97;100.00
62150;BME280;48134;53.586;10.610;2024-01-27T04:01:28;102234.56;;;4.00;100.00
62150;BME280;48134;53.586;10.610;2024-01-27T04:03:56;102223.41;;;4.03;100.00
62150;BME280;48134;53.586;10.610;2024-01-27T04:06:29;102237.06;;;4.02;100.00
62150;BME280;48134;53.586;10.610;2024-01-27T04:08:57;102241.84;;;4.00;100.00
62150;BME280;48134;53.586;10.610;2024-01-27T04:11:30;102247.88;;;4.08;100.00
62150;BME280;48134;53.586;10.610;2024-01-27T04:14:03;102253.22;;;4.02;100.00
62150;BME280;48134;53.586;10.610;2024-01-27T04:16:37;102251.59;;;4.01;100.00
62150;BME280;48134;53.586;10.610;2024-01-27T04:19:06;102254.28;;;4.01;100.00
62150;BME280;48134;53.586;10.610;2024-01-27T04:21:34;102258.00;;;4.00;100.00
62150;BME280;48134;53.586;10.610;2024-01-27T04:24:07;102261.28;;;3.95;100.00
62150;BME280;48134;53.586;10.610;2024-01-27T04:26:40;102259.41;;;3.96;100.00
62150;BME280;48134;53.586;10.610;2024-01-27T04:29:08;102258.19;;;3.98;100.00
62150;BME280;48134;53.586;10.610;2024-01-27T04:31:42;102263.13;;;3.95;100.00
62150;BME280;48134;53.586;10.610;2024-01-27T04:34:15;102266.69;;;3.95;100.00
62150;BME280;48134;53.586;10.610;2024-01-27T04:36:48;102271.22;;;3.95;100.00
62150;BME280;48134;53.586;10.610;2024-01-27T04:39:21;102265.00;;;3.94;100.00
62150;BME280;48134;53.586;10.610;2024-01-27T04:41:49;102267.44;;;3.89;100.00
62150;BME280;48134;53.586;10.610;2024-01-27T04:44:22;102274.97;;;3.94;100.00
62150;BME280;48134;53.586;10.610;2024-01-27T04:46:51;102268.72;;;3.93;100.00
62150;BME280;48134;53.586;10.610;2024-01-27T04:49:25;102274.75;;;3.95;100.00
62150;BME280;48134;53.586;10.610;2024-01-27T04:51:58;102284.69;;;3.95;100.00
62150;BME280;48134;53.586;10.610;2024-01-27T04:54:26;102279.94;;;3.97;100.00
62150;BME280;48134;53.586;10.610;2024-01-27T04:56:59;102284.06;;;3.92;100.00
62150;BME280;48134;53.586;10.610;2024-01-27T04:59:27;102272.44;;;3.92;100.00
62150;BME280;48134;53.586;10.610;2024-01-27T05:02:01;102277.66;;;3.94;100.00
62150;BME280;48134;53.586;10.610;2024-01-27T05:04:29;102291.28;;;3.92;100.00
62150;BME280;48134;53.586;10.610;2024-01-27T05:06:57;102285.72;;;3.94;100.00
62150;BME280;48134;53.586;10.610;2024-01-27T05:09:33;102286.81;;;3.99;100.00
62150;BME280;48134;53.586;10.610;2024-01-27T05:12:01;102290.91;;;3.95;100.00
62150;BME280;48134;53.586;10.610;2024-01-27T05:14:29;102293.63;;;3.95;100.00
62150;BME280;48134;53.586;10.610;2024-01-27T05:16:57;102294.84;;;3.92;100.00
62150;BME280;48134;53.586;10.610;2024-01-27T05:19:32;102302.91;;;3.92;100.00
62150;BME280;48134;53.586;10.610;2024-01-27T05:22:05;102298.34;;;3.93;100.00
62150;BME280;48134;53.586;10.610;2024-01-27T05:24:33;102299.00;;;3.95;100.00
62150;BME280;48134;53.586;10.610;2024-01-27T05:27:01;102301.69;;;3.95;100.00
62150;BME280;48134;53.586;10.610;2024-01-27T05:29:29;102314.50;;;3.93;100.00
62150;BME280;48134;53.586;10.610;2024-01-27T05:32:02;102307.28;;;3.94;100.00
62150;BME280;48134;53.586;10.610;2024-01-27T05:34:36;102311.81;;;3.93;100.00
62150;BME280;48134;53.586;10.610;2024-01-27T05:37:09;102317.00;;;3.95;100.00
62150;BME280;48134;53.586;10.610;2024-01-27T05:39:42;102317.19;;;3.93;100.00
62150;BME280;48134;53.586;10.610;2024-01-27T05:42:15;102319.28;;;3.91;100.00
62150;BME280;48134;53.586;10.610;2024-01-27T05:44:43;102318.41;;;3.90;100.00
62150;BME280;48134;53.586;10.610;2024-01-27T05:47:16;102307.41;;;3.85;100.00
62150;BME280;48134;53.586;10.610;2024-01-27T05:49:51;102318.19;;;3.85;100.00
62150;BME280;48134;53.586;10.610;2024-01-27T05:52:18;102322.72;;;3.85;100.00
62150;BME280;48134;53.586;10.610;2024-01-27T05:54:47;102332.03;;;3.82;100.00
62150;BME280;48134;53.586;10.610;2024-01-27T05:57:20;102326.22;;;3.79;100.00
62150;BME280;48134;53.586;10.610;2024-01-27T05:59:47;102315.78;;;3.69;100.00
62150;BME280;48134;53.586;10.610;2024-01-27T06:02:15;102332.34;;;3.72;100.00
62150;BME280;48134;53.586;10.610;2024-01-27T06:04:50;102320.97;;;3.70;100.00
62150;BME280;48134;53.586;10.610;2024-01-27T06:07:18;102326.91;;;3.66;100.00
62150;BME280;48134;53.586;10.610;2024-01-27T06:09:46;102334.75;;;3.61;100.00
62150;BME280;48134;53.586;10.610;2024-01-27T06:12:19;102339.34;;;3.67;100.00
62150;BME280;48134;53.586;10.610;2024-01-27T06:14:52;102345.88;;;3.57;100.00
62150;BME280;48134;53.586;10.610;2024-01-27T06:17:25;102342.94;;;3.52;100.00
62150;BME280;48134;53.586;10.610;2024-01-27T06:20:00;102352.88;;;3.52;100.00
62150;BME280;48134;53.586;10.610;2024-01-27T06:22:33;102365.69;;;3.50;100.00
62150;BME280;48134;53.586;10.610;2024-01-27T06:25:07;102366.72;;;3.49;100.00
62150;BME280;48134;53.586;10.610;2024-01-27T06:27:40;102364.41;;;3.46;100.00
62150;BME280;48134;53.586;10.610;2024-01-27T06:30:14;102371.59;;;3.38;100.00
62150;BME280;48134;53.586;10.610;2024-01-27T06:32:47;102384.75;;;3.33;100.00
62150;BME280;48134;53.586;10.610;2024-01-27T06:35:16;102380.13;;;3.27;100.00
62150;BME280;48134;53.586;10.610;2024-01-27T06:37:49;102391.97;;;3.33;100.00
62150;BME280;48134;53.586;10.610;2024-01-27T06:40:18;102394.53;;;3.34;100.00
62150;BME280;48134;53.586;10.610;2024-01-27T06:42:51;102400.06;;;3.33;100.00
62150;BME280;48134;53.586;10.610;2024-01-27T06:45:18;102405.44;;;3.33;100.00
62150;BME280;48134;53.586;10.610;2024-01-27T06:47:51;102402.19;;;3.37;100.00
62150;BME280;48134;53.586;10.610;2024-01-27T06:50:26;102408.13;;;3.33;100.00
62150;BME280;48134;53.586;10.610;2024-01-27T06:52:54;102413.34;;;3.34;100.00
62150;BME280;48134;53.586;10.610;2024-01-27T06:55:22;102406.69;;;3.30;100.00
62150;BME280;48134;53.586;10.610;2024-01-27T06:58:11;102417.88;;;3.34;100.00
62150;BME280;48134;53.586;10.610;2024-01-27T07:00:56;102420.97;;;3.31;100.00
62150;BME280;48134;53.586;10.610;2024-01-27T07:03:43;102425.13;;;3.33;100.00
62150;BME280;48134;53.586;10.610;2024-01-27T07:06:26;102428.09;;;3.38;100.00
62150;BME280;48134;53.586;10.610;2024-01-27T07:09:01;102430.50;;;3.33;100.00
62150;BME280;48134;53.586;10.610;2024-01-27T07:12:30;102435.97;;;3.40;100.00
62150;BME280;48134;53.586;10.610;2024-01-27T07:15:52;102435.59;;;3.43;100.00
62150;BME280;48134;53.586;10.610;2024-01-27T07:18:38;102454.44;;;3.43;100.00
62150;BME280;48134;53.586;10.610;2024-01-27T07:21:15;102449.56;;;3.53;100.00
62150;BME280;48134;53.586;10.610;2024-01-27T07:23:53;102448.66;;;3.46;100.00
62150;BME280;48134;53.586;10.610;2024-01-27T07:26:26;102447.47;;;3.49;100.00
62150;BME280;48134;53.586;10.610;2024-01-27T07:28:59;102450.97;;;3.49;100.00
62150;BME280;48134;53.586;10.610;2024-01-27T07:31:27;102445.88;;;3.54;100.00
62150;BME280;48134;53.586;10.610;2024-01-27T07:33:55;102447.94;;;3.52;100.00
62150;BME280;48134;53.586;10.610;2024-01-27T07:36:28;102453.13;;;3.54;100.00
62150;BME280;48134;53.586;10.610;2024-01-27T07:39:05;102458.59;;;3.61;100.00
62150;BME280;48134;53.586;10.610;2024-01-27T07:41:38;102459.13;;;3.56;100.00
62150;BME280;48134;53.586;10.610;2024-01-27T07:44:12;102458.50;;;3.54;100.00
62150;BME280;48134;53.586;10.610;2024-01-27T07:46:45;102467.59;;;3.53;100.00
62150;BME280;48134;53.586;10.610;2024-01-27T07:49:18;102471.50;;;3.50;100.00
62150;BME280;48134;53.586;10.610;2024-01-27T07:51:46;102469.66;;;3.51;100.00
62150;BME280;48134;53.586;10.610;2024-01-27T07:54:21;102475.94;;;3.58;100.00
62150;BME280;48134;53.586;10.610;2024-01-27T07:56:49;102467.03;;;3.57;100.00
62150;BME280;48134;53.586;10.610;2024-01-27T07:59:22;102476.69;;;3.52;100.00
62150;BME280;48134;53.586;10.610;2024-01-27T08:01:55;102477.72;;;3.51;100.00
62150;BME280;48134;53.586;10.610;2024-01-27T08:04:23;102480.16;;;3.46;100.00
62150;BME280;48134;53.586;10.610;2024-01-27T08:06:56;102481.44;;;3.50;100.00
62150;BME280;48134;53.586;10.610;2024-01-27T08:09:31;102484.31;;;3.48;100.00
62150;BME280;48134;53.586;10.610;2024-01-27T08:11:59;102479.38;;;3.52;100.00
62150;BME280;48134;53.586;10.610;2024-01-27T08:14:33;102499.81;;;3.46;100.00
62150;BME280;48134;53.586;10.610;2024-01-27T08:17:07;102489.25;;;3.45;100.00
62150;BME280;48134;53.586;10.610;2024-01-27T08:19:35;102492.31;;;3.42;100.00
62150;BME280;48134;53.586;10.610;2024-01-27T08:22:09;102502.31;;;3.48;100.00
62150;BME280;48134;53.586;10.610;2024-01-27T08:24:38;102514.47;;;3.44;100.00
62150;BME280;48134;53.586;10.610;2024-01-27T08:27:11;102501.88;;;3.44;100.00
62150;BME280;48134;53.586;10.610;2024-01-27T08:29:44;102509.47;;;3.55;100.00
62150;BME280;48134;53.586;10.610;2024-01-27T08:32:12;102507.34;;;3.51;100.00
62150;BME280;48134;53.586;10.610;2024-01-27T08:34:40;102516.97;;;3.45;100.00
62150;BME280;48134;53.586;10.610;2024-01-27T08:37:17;102528.13;;;3.42;100.00
62150;BME280;48134;53.586;10.610;2024-01-27T08:39:55;102520.13;;;3.49;100.00
62150;BME280;48134;53.586;10.610;2024-01-27T08:42:28;102523.75;;;3.41;100.00
62150;BME280;48134;53.586;10.610;2024-01-27T08:44:59;102519.66;;;3.45;100.00
62150;BME280;48134;53.586;10.610;2024-01-27T08:47:31;102533.78;;;3.47;100.00
62150;BME280;48134;53.586;10.610;2024-01-27T08:50:05;102547.72;;;3.51;100.00
62150;BME280;48134;53.586;10.610;2024-01-27T08:52:38;102549.75;;;3.64;100.00
62150;BME280;48134;53.586;10.610;2024-01-27T08:55:12;102552.63;;;3.62;100.00
62150;BME280;48134;53.586;10.610;2024-01-27T08:57:45;102558.22;;;3.61;100.00
62150;BME280;48134;53.586;10.610;2024-01-27T09:00:14;102553.94;;;3.66;100.00
62150;BME280;48134;53.586;10.610;2024-01-27T09:02:48;102535.81;;;3.60;100.00
62150;BME280;48134;53.586;10.610;2024-01-27T09:05:21;102549.25;;;3.75;100.00
62150;BME280;48134;53.586;10.610;2024-01-27T09:07:53;102548.53;;;3.66;100.00
62150;BME280;48134;53.586;10.610;2024-01-27T09:10:23;102543.69;;;3.62;100.00
62150;BME280;48134;53.586;10.610;2024-01-27T09:12:56;102550.94;;;3.61;100.00
62150;BME280;48134;53.586;10.610;2024-01-27T09:15:24;102545.19;;;3.64;100.00
62150;BME280;48134;53.586;10.610;2024-01-27T09:17:57;102548.53;;;3.66;100.00
62150;BME280;48134;53.586;10.610;2024-01-27T09:20:30;102549.19;;;3.68;100.00
62150;BME280;48134;53.586;10.610;2024-01-27T09:23:06;102556.63;;;3.66;100.00
62150;BME280;48134;53.586;10.610;2024-01-27T09:25:41;102565.31;;;3.83;100.00
62150;BME280;48134;53.586;10.610;2024-01-27T09:28:09;102572.94;;;3.80;100.00
62150;BME280;48134;53.586;10.610;2024-01-27T09:30:40;102568.78;;;3.77;100.00
62150;BME280;48134;53.586;10.610;2024-01-27T09:33:09;102555.56;;;3.82;100.00
62150;BME280;48134;53.586;10.610;2024-01-27T09:35:37;102560.84;;;3.90;100.00
62150;BME280;48134;53.586;10.610;2024-01-27T09:38:10;102559.66;;;3.78;100.00
62150;BME280;48134;53.586;10.610;2024-01-27T09:40:39;102555.47;;;3.75;100.00
62150;BME280;48134;53.586;10.610;2024-01-27T09:43:09;102550.38;;;3.66;100.00
62150;BME280;48134;53.586;10.610;2024-01-27T09:45:40;102568.84;;;3.84;100.00
62150;BME280;48134;53.586;10.610;2024-01-27T09:48:13;102563.28;;;3.85;100.00
62150;BME280;48134;53.586;10.610;2024-01-27T09:50:46;102564.94;;;3.86;100.00
62150;BME280;48134;53.586;10.610;2024-01-27T09:53:17;102569.88;;;3.83;100.00
62150;BME280;48134;53.586;10.610;2024-01-27T09:55:50;102572.09;;;3.79;100.00
62150;BME280;48134;53.586;10.610;2024-01-27T09:58:19;102571.19;;;3.72;100.00
62150;BME280;48134;53.586;10.610;2024-01-27T10:00:53;102571.47;;;3.77;100.00
62150;BME280;48134;53.586;10.610;2024-01-27T10:03:27;102573.78;;;3.80;100.00
62150;BME280;48134;53.586;10.610;2024-01-27T10:05:55;102572.88;;;3.73;100.00
62150;BME280;48134;53.586;10.610;2024-01-27T10:08:29;102590.31;;;3.77;100.00
62150;BME280;48134;53.586;10.610;2024-01-27T10:10:57;102582.88;;;3.79;100.00
62150;BME280;48134;53.586;10.610;2024-01-27T10:13:31;102581.38;;;3.77;100.00
62150;BME280;48134;53.586;10.610;2024-01-27T10:16:00;102582.88;;;3.79;100.00
62150;BME280;48134;53.586;10.610;2024-01-27T10:18:33;102592.25;;;3.83;100.00
62150;BME280;48134;53.586;10.610;2024-01-27T10:21:13;102593.28;;;3.82;100.00
62150;BME280;48134;53.586;10.610;2024-01-27T10:23:46;102584.19;;;3.83;100.00
62150;BME280;48134;53.586;10.610;2024-01-27T10:26:19;102583.16;;;3.84;100.00
62150;BME280;48134;53.586;10.610;2024-01-27T10:28:53;102589.66;;;3.90;100.00
62150;BME280;48134;53.586;10.610;2024-01-27T10:31:27;102588.16;;;3.87;100.00
62150;BME280;48134;53.586;10.610;2024-01-27T10:34:00;102600.13;;;4.00;100.00
62150;BME280;48134;53.586;10.610;2024-01-27T10:36:38;102604.50;;;4.01;100.00
62150;BME280;48134;53.586;10.610;2024-01-27T10:39:15;102621.00;;;4.13;100.00
62150;BME280;48134;53.586;10.610;2024-01-27T10:41:49;102616.06;;;4.16;100.00
62150;BME280;48134;53.586;10.610;2024-01-27T10:44:23;102616.28;;;4.15;100.00
62150;BME280;48134;53.586;10.610;2024-01-27T10:46:57;102624.56;;;4.13;100.00
62150;BME280;48134;53.586;10.610;2024-01-27T10:49:34;102625.38;;;4.14;100.00
62150;BME280;48134;53.586;10.610;2024-01-27T10:52:06;102624.78;;;4.18;100.00
62150;BME280;48134;53.586;10.610;2024-01-27T10:54:43;102614.28;;;4.23;100.00
62150;BME280;48134;53.586;10.610;2024-01-27T10:57:17;102620.78;;;4.29;100.00
62150;BME280;48134;53.586;10.610;2024-01-27T10:59:52;102604.22;;;4.32;100.00
62150;BME280;48134;53.586;10.610;2024-01-27T11:02:20;102602.81;;;4.36;100.00
62150;BME280;48134;53.586;10.610;2024-01-27T11:04:54;102598.91;;;4.39;100.00
62150;BME280;48134;53.586;10.610;2024-01-27T11:07:28;102593.59;;;4.46;100.00
62150;BME280;48134;53.586;10.610;2024-01-27T11:10:03;102598.97;;;4.46;100.00
62150;BME280;48134;53.586;10.610;2024-01-27T11:12:36;102596.69;;;4.42;100.00
62150;BME280;48134;53.586;10.610;2024-01-27T11:15:10;102593.78;;;4.44;100.00
62150;BME280;48134;53.586;10.610;2024-01-27T11:17:43;102595.91;;;4.49;100.00
62150;BME280;48134;53.586;10.610;2024-01-27T11:20:13;102599.72;;;4.54;100.00
62150;BME280;48134;53.586;10.610;2024-01-27T11:22:48;102585.84;;;4.57;100.00
62150;BME280;48134;53.586;10.610;2024-01-27T11:25:21;102586.66;;;4.58;100.00
62150;BME280;48134;53.586;10.610;2024-01-27T11:27:49;102577.75;;;4.57;100.00
62150;BME280;48134;53.586;10.610;2024-01-27T11:30:26;102587.94;;;4.62;100.00
62150;BME280;48134;53.586;10.610;2024-01-27T11:33:00;102573.19;;;4.80;100.00
62150;BME280;48134;53.586;10.610;2024-01-27T11:35:33;102584.50;;;4.68;100.00
62150;BME280;48134;53.586;10.610;2024-01-27T11:38:01;102596.38;;;4.74;100.00
62150;BME280;48134;53.586;10.610;2024-01-27T11:40:29;102602.78;;;4.73;100.00
62150;BME280;48134;53.586;10.610;2024-01-27T11:43:02;102595.56;;;4.80;100.00
62150;BME280;48134;53.586;10.610;2024-01-27T11:45:37;102592.06;;;4.80;100.00
62150;BME280;48134;53.586;10.610;2024-01-27T11:48:05;102604.53;;;4.81;100.00
62150;BME280;48134;53.586;10.610;2024-01-27T11:50:33;102608.94;;;4.88;100.00
62150;BME280;48134;53.586;10.610;2024-01-27T11:53:06;102607.78;;;4.98;100.00
62150;BME280;48134;53.586;10.610;2024-01-27T11:55:41;102610.72;;;5.03;100.00
62150;BME280;48134;53.586;10.610;2024-01-27T11:58:14;102614.88;;;5.05;100.00
62150;BME280;48134;53.586;10.610;2024-01-27T12:00:43;102608.06;;;5.09;100.00
62150;BME280;48134;53.586;10.610;2024-01-27T12:03:11;102616.63;;;5.13;100.00
62150;BME280;48134;53.586;10.610;2024-01-27T12:05:39;102614.56;;;5.15;100.00
62150;BME280;48134;53.586;10.610;2024-01-27T12:08:12;102612.81;;;5.29;100.00
62150;BME280;48134;53.586;10.610;2024-01-27T12:10:40;102618.78;;;5.24;100.00
62150;BME280;48134;53.586;10.610;2024-01-27T12:13:13;102620.50;;;5.32;100.00
62150;BME280;48134;53.586;10.610;2024-01-27T12:15:43;102618.00;;;5.31;100.00
62150;BME280;48134;53.586;10.610;2024-01-27T12:18:16;102622.19;;;5.33;100.00
62150;BME280;48134;53.586;10.610;2024-01-27T12:20:54;102628.66;;;5.39;100.00
62150;BME280;48134;53.586;10.610;2024-01-27T12:23:22;102627.75;;;5.32;100.00
62150;BME280;48134;53.586;10.610;2024-01-27T12:25:52;102628.84;;;5.37;100.00
62150;BME280;48134;53.586;10.610;2024-01-27T12:28:25;102627.75;;;5.32;100.00
62150;BME280;48134;53.586;10.610;2024-01-27T12:30:56;102644.34;;;5.28;100.00
62150;BME280;48134;53.586;10.610;2024-01-27T12:33:24;102639.00;;;5.35;100.00
62150;BME280;48134;53.586;10.610;2024-01-27T12:35:52;102633.78;;;5.34;100.00
62150;BME280;48134;53.586;10.610;2024-01-27T12:38:21;102637.97;;;5.36;100.00
62150;BME280;48134;53.586;10.610;2024-01-27T12:40:49;102639.25;;;5.40;100.00
62150;BME280;48134;53.586;10.610;2024-01-27T12:43:22;102627.59;;;5.40;100.00
62150;BME280;48134;53.586;10.610;2024-01-27T12:45:50;102634.66;;;5.41;100.00
62150;BME280;48134;53.586;10.610;2024-01-27T12:48:20;102635.47;;;5.35;100.00
62150;BME280;48134;53.586;10.610;2024-01-27T12:50:53;102625.94;;;5.39;100.00
62150;BME280;48134;53.586;10.610;2024-01-27T12:53:26;102627.22;;;5.43;100.00
62150;BME280;48134;53.586;10.610;2024-01-27T12:55:59;102630.50;;;5.38;100.00
62150;BME280;48134;53.586;10.610;2024-01-27T12:58:27;102631.78;;;5.42;100.00
62150;BME280;48134;53.586;10.610;2024-01-27T13:01:00;102626.81;;;5.46;100.00
62150;BME280;48134;53.586;10.610;2024-01-27T13:03:29;102623.09;;;5.47;100.00
62150;BME280;48134;53.586;10.610;2024-01-27T13:06:02;102625.34;;;5.43;100.00